Decoded Metar for KJKL (NOCTOR/JACKSON in KY, USA) (IATA:JKL) | Meteo·Mobile Aviation Weather
aviador You're here:

KJKL Decoded Metar

NOCTOR/JACKSON in KY, USA
Report Time2018-09-21 10:53:00
UTC Time2018-09-21 11:33:19
Flight Rules vfr VFR
Wind200° at 03 kt
W.Decomp.*RWY 19: 2.9 kt HW 0.7 kt RCW
W.Rank200° ranks 1
Current wind is below 200° avg. (4.4)
Visibility9999 m
Phenomena:N/A
Clouds:N/A
Expected CloudBase > 1,200 ft AGL from Temp-Dew spread
CeilingNone
Temp22°C (ISA +10)
Dew Point19°C (83% RH)
QNH1021 hPa
Density Alt2,523 ft
Elevation1,365 ft
Report Wrong Elevation
Raw Report
METAR KJKL 211053Z AUTO 20003KT 10SM CLR 22/19 A3015 RMK AO2 SLP192
T02170194=

Extra information for KJKL:More info

Metar Taf Metar & Taf Last 4 Metars F.Rules Stats Wind Profile Meteogram Temp Stats Airport Information Weather charts Add Link Nearby VenuesMetar ALERT Operation Metar Decoded Social comments

AIRNAV info for KJKL